createdAt,value
2018-10-07T00:00:31.361Z,13.50
2018-10-07T00:02:59.074Z,13.50
2018-10-07T00:05:26.864Z,13.40
2018-10-07T00:07:54.556Z,13.40
2018-10-07T00:10:22.186Z,13.30
2018-10-07T00:12:50.008Z,13.30
2018-10-07T00:15:17.651Z,13.30
2018-10-07T00:17:45.288Z,13.30
2018-10-07T00:20:12.987Z,13.30
2018-10-07T00:22:40.787Z,13.20
2018-10-07T00:25:08.398Z,13.20
2018-10-07T00:27:36.091Z,13.20
2018-10-07T00:30:03.779Z,13.10
2018-10-07T00:32:31.417Z,13.00
2018-10-07T00:34:59.028Z,13.00
2018-10-07T00:37:26.710Z,13.00
2018-10-07T00:39:54.400Z,12.90
2018-10-07T00:42:22.177Z,12.90
2018-10-07T00:44:49.923Z,12.90
2018-10-07T00:47:17.588Z,12.90
2018-10-07T00:49:45.282Z,12.90
2018-10-07T00:52:12.981Z,12.90
2018-10-07T00:54:40.714Z,12.80
2018-10-07T00:57:08.347Z,12.70
2018-10-07T00:59:36.031Z,12.80
2018-10-07T01:02:03.699Z,12.70
2018-10-07T01:04:31.431Z,12.70
2018-10-07T01:06:59.882Z,12.70
2018-10-07T01:09:27.572Z,12.70
2018-10-07T01:11:55.290Z,12.70
2018-10-07T01:14:23.012Z,12.70
2018-10-07T01:16:50.661Z,12.70
2018-10-07T01:19:18.328Z,12.70
2018-10-07T01:21:45.978Z,12.70
2018-10-07T01:24:13.576Z,12.60
2018-10-07T01:26:41.200Z,12.60
2018-10-07T01:29:08.845Z,12.60
2018-10-07T01:31:36.797Z,12.70
2018-10-07T01:34:04.463Z,12.60
2018-10-07T01:36:32.054Z,12.60
2018-10-07T01:38:59.769Z,12.60
2018-10-07T01:41:27.391Z,12.60
2018-10-07T01:43:55.081Z,12.60
2018-10-07T01:46:22.918Z,12.60
2018-10-07T01:48:50.619Z,12.60
2018-10-07T01:51:18.313Z,12.60
2018-10-07T01:53:46.289Z,12.50
2018-10-07T01:56:14.418Z,12.50
2018-10-07T01:58:42.254Z,12.40
2018-10-07T02:01:15.665Z,12.40
2018-10-07T02:03:43.602Z,12.40
2018-10-07T02:06:11.615Z,12.50
2018-10-07T02:08:39.550Z,12.50
2018-10-07T02:11:07.560Z,12.50
2018-10-07T02:13:35.723Z,12.40
2018-10-07T02:16:03.811Z,12.40
2018-10-07T02:18:34.610Z,12.30
2018-10-07T02:21:03.470Z,12.10
2018-10-07T02:23:31.387Z,12.20
2018-10-07T02:25:59.408Z,12.20
2018-10-07T02:28:27.397Z,12.20
2018-10-07T02:30:55.394Z,12.20
2018-10-07T02:33:23.563Z,12.20
2018-10-07T02:35:52.098Z,12.20
2018-10-07T02:38:19.955Z,12.20
2018-10-07T02:40:47.941Z,12.30
2018-10-07T02:43:15.748Z,12.20
2018-10-07T02:45:43.768Z,12.20
2018-10-07T02:48:11.810Z,12.10
2018-10-07T02:50:40.372Z,12.00
2018-10-07T02:53:08.212Z,12.00
2018-10-07T02:55:36.066Z,12.00
2018-10-07T02:58:04.221Z,12.00
2018-10-07T03:00:32.054Z,12.00
2018-10-07T03:03:06.799Z,12.00
2018-10-07T03:05:34.664Z,11.90
2018-10-07T03:08:02.590Z,11.80
2018-10-07T03:10:30.473Z,11.80
2018-10-07T03:12:58.351Z,11.80
2018-10-07T03:15:26.210Z,11.80
2018-10-07T03:17:54.106Z,11.70
2018-10-07T03:20:21.961Z,11.60
2018-10-07T03:22:49.788Z,11.70
2018-10-07T03:25:17.825Z,11.70
2018-10-07T03:27:45.927Z,11.70
2018-10-07T03:30:13.789Z,11.70
2018-10-07T03:32:42.601Z,11.60
2018-10-07T03:35:10.573Z,11.50
2018-10-07T03:37:38.984Z,11.50
2018-10-07T03:40:06.955Z,11.50
2018-10-07T03:42:34.860Z,11.50
2018-10-07T03:45:02.717Z,11.40
2018-10-07T03:47:30.688Z,11.40
2018-10-07T03:49:58.593Z,11.40
2018-10-07T03:52:26.430Z,11.40
2018-10-07T03:55:00.130Z,11.40
2018-10-07T03:57:27.951Z,11.40
2018-10-07T03:59:55.886Z,11.40
2018-10-07T04:02:24.287Z,11.40
2018-10-07T04:04:52.394Z,11.40
2018-10-07T04:07:20.227Z,11.40
2018-10-07T04:09:48.142Z,11.40
2018-10-07T04:12:16.034Z,11.40
2018-10-07T04:14:43.869Z,11.40
2018-10-07T04:17:11.696Z,11.50
2018-10-07T04:19:39.767Z,11.50
2018-10-07T04:22:07.766Z,11.60
2018-10-07T04:24:36.012Z,11.70
2018-10-07T04:27:04.020Z,11.80
2018-10-07T04:29:31.889Z,11.90
2018-10-07T04:31:59.824Z,11.90
2018-10-07T04:34:28.763Z,11.90
2018-10-07T04:36:56.914Z,12.00
2018-10-07T04:39:24.884Z,12.00
2018-10-07T04:41:52.760Z,11.90
2018-10-07T04:44:20.656Z,11.90
2018-10-07T04:46:48.592Z,11.80
2018-10-07T04:49:16.536Z,11.80
2018-10-07T04:51:44.456Z,11.80
2018-10-07T04:54:12.467Z,11.70
2018-10-07T04:56:40.471Z,11.70
2018-10-07T04:59:08.440Z,11.70
2018-10-07T05:01:36.363Z,11.70
2018-10-07T05:04:04.279Z,11.60
2018-10-07T05:06:33.703Z,11.50
2018-10-07T05:09:02.983Z,11.40
2018-10-07T05:11:31.799Z,11.40
2018-10-07T05:13:59.915Z,11.30
2018-10-07T05:16:32.586Z,11.30
2018-10-07T05:19:01.131Z,11.30
2018-10-07T05:21:28.949Z,11.20
2018-10-07T05:23:58.342Z,11.20
2018-10-07T05:26:26.398Z,11.30
2018-10-07T05:28:55.574Z,11.30
2018-10-07T05:31:23.862Z,11.30
2018-10-07T05:34:03.621Z,11.30
2018-10-07T05:36:31.465Z,11.30
2018-10-07T05:38:59.677Z,11.30
2018-10-07T05:41:28.334Z,11.30
2018-10-07T05:43:56.476Z,11.20
2018-10-07T05:46:24.424Z,11.20
2018-10-07T05:48:52.556Z,11.10
2018-10-07T05:51:20.398Z,11.10
2018-10-07T05:53:49.315Z,11.10
2018-10-07T05:56:19.120Z,11.00
2018-10-07T05:58:52.494Z,11.10
2018-10-07T06:01:27.813Z,11.00
2018-10-07T06:03:57.621Z,11.10
2018-10-07T06:06:26.369Z,11.10
2018-10-07T06:08:54.644Z,11.20
2018-10-07T06:11:24.784Z,11.30
2018-10-07T06:13:55.776Z,11.30
2018-10-07T06:16:23.741Z,11.30
2018-10-07T06:18:51.671Z,11.40
2018-10-07T06:21:19.954Z,11.50
2018-10-07T06:23:52.933Z,11.50
2018-10-07T06:26:21.184Z,11.60
2018-10-07T06:28:50.045Z,11.80
2018-10-07T06:31:19.435Z,11.80
2018-10-07T06:33:47.414Z,11.90
2018-10-07T06:36:31.642Z,11.90
2018-10-07T06:38:59.611Z,11.90
2018-10-07T06:41:27.585Z,12.00
2018-10-07T06:43:55.730Z,12.10
2018-10-07T06:46:23.849Z,12.20
2018-10-07T06:48:51.662Z,12.30
2018-10-07T06:51:19.772Z,12.50
2018-10-07T06:53:47.636Z,12.60
2018-10-07T06:56:16.239Z,12.70
2018-10-07T06:58:44.141Z,12.80
2018-10-07T07:01:12.281Z,12.80
2018-10-07T07:03:40.805Z,12.90
2018-10-07T07:06:08.695Z,13.00
2018-10-07T07:08:36.581Z,13.20
2018-10-07T07:11:04.541Z,13.30
2018-10-07T07:13:32.580Z,13.50
2018-10-07T07:16:00.950Z,13.60
2018-10-07T07:18:35.600Z,13.90
2018-10-07T07:23:44.197Z,14.40
2018-10-07T07:26:12.377Z,14.60
2018-10-07T07:28:45.298Z,14.70
2018-10-07T07:31:13.998Z,14.80
2018-10-07T07:33:42.135Z,14.90
2018-10-07T07:36:23.918Z,15.10
2018-10-07T07:38:52.048Z,15.40
2018-10-07T07:41:22.207Z,15.60
2018-10-07T07:43:59.109Z,15.80
2018-10-07T07:46:29.529Z,15.80
2018-10-07T07:49:01.386Z,15.90
2018-10-07T07:51:30.278Z,15.80
2018-10-07T07:53:59.886Z,15.80
2018-10-07T07:59:02.008Z,15.90
2018-10-07T08:01:31.481Z,16.00
2018-10-07T08:04:00.882Z,15.90
2018-10-07T08:06:34.593Z,16.10
2018-10-07T08:09:05.474Z,15.90
2018-10-07T08:11:35.460Z,15.90
2018-10-07T08:14:05.145Z,16.00
2018-10-07T08:16:35.341Z,15.80
2018-10-07T08:19:04.440Z,15.70
2018-10-07T08:21:34.468Z,15.70
2018-10-07T08:24:02.396Z,15.60
2018-10-07T08:26:30.062Z,15.60
2018-10-07T08:28:57.775Z,15.50
2018-10-07T08:31:25.410Z,15.40
2018-10-07T08:33:53.201Z,15.40
2018-10-07T08:36:24.486Z,15.30
2018-10-07T08:39:02.300Z,15.30
2018-10-07T08:41:36.075Z,15.30
2018-10-07T08:44:11.574Z,15.40
2018-10-07T08:46:39.229Z,15.50
2018-10-07T08:49:07.937Z,15.60
2018-10-07T08:51:35.707Z,15.40
2018-10-07T08:54:03.395Z,15.50
2018-10-07T08:56:31.099Z,15.40
2018-10-07T08:58:58.683Z,15.40
2018-10-07T09:01:26.307Z,15.40
2018-10-07T09:03:53.926Z,15.30
2018-10-07T09:09:12.768Z,15.30
2018-10-07T09:11:40.715Z,15.30
2018-10-07T09:14:08.850Z,15.30
2018-10-07T09:16:47.168Z,15.40
2018-10-07T09:19:14.777Z,15.30
2018-10-07T09:21:42.377Z,15.30
2018-10-07T09:24:11.181Z,15.30
2018-10-07T09:26:45.684Z,15.40
2018-10-07T09:29:13.275Z,15.40
2018-10-07T09:31:40.945Z,15.40
2018-10-07T09:34:08.594Z,15.40
2018-10-07T09:36:36.313Z,15.30
2018-10-07T09:39:05.157Z,15.20
2018-10-07T09:41:32.897Z,15.20
2018-10-07T09:44:00.522Z,15.20
2018-10-07T09:46:28.133Z,15.20
2018-10-07T09:48:56.509Z,15.10
2018-10-07T09:51:24.142Z,15.20
2018-10-07T09:53:53.103Z,15.30
2018-10-07T09:56:20.839Z,15.30
2018-10-07T09:58:48.502Z,15.30
2018-10-07T10:01:16.158Z,15.30
2018-10-07T10:03:43.788Z,15.40
2018-10-07T10:06:11.469Z,15.40
2018-10-07T10:08:39.106Z,15.50
2018-10-07T10:11:06.839Z,15.50
2018-10-07T10:13:34.456Z,15.50
2018-10-07T10:16:02.057Z,15.50
2018-10-07T10:18:31.976Z,15.50
2018-10-07T10:21:01.445Z,15.50
2018-10-07T10:23:34.581Z,15.50
2018-10-07T10:26:06.174Z,15.40
2018-10-07T10:28:37.749Z,15.40
2018-10-07T10:31:10.985Z,15.20
2018-10-07T10:33:40.962Z,15.20
2018-10-07T10:36:13.918Z,15.20
2018-10-07T10:38:46.430Z,15.20
2018-10-07T10:41:18.540Z,15.10
2018-10-07T10:43:48.658Z,15.00
2018-10-07T10:46:18.861Z,15.00
2018-10-07T10:49:03.252Z,14.90
2018-10-07T10:51:32.582Z,14.90
2018-10-07T10:54:07.658Z,14.80
2018-10-07T10:56:37.930Z,14.80
2018-10-07T10:59:10.944Z,14.80
2018-10-07T11:01:43.259Z,14.70
2018-10-07T11:04:22.993Z,14.60
2018-10-07T11:06:56.287Z,14.50
2018-10-07T11:09:25.958Z,14.50
2018-10-07T11:11:56.721Z,14.40
2018-10-07T11:14:29.114Z,14.40
2018-10-07T11:17:04.372Z,14.30
2018-10-07T11:19:52.758Z,14.40
2018-10-07T11:22:26.060Z,14.30
2018-10-07T11:25:59.279Z,14.30
2018-10-07T11:28:28.214Z,14.30
2018-10-07T11:31:01.675Z,14.50
2018-10-07T11:34:03.219Z,14.60
2018-10-07T11:38:40.230Z,14.80
2018-10-07T11:42:11.015Z,15.00
2018-10-07T11:44:45.022Z,15.30
2018-10-07T11:47:19.212Z,15.50
2018-10-07T11:49:49.577Z,15.50
2018-10-07T11:52:23.781Z,15.60
2018-10-07T11:54:55.491Z,15.60
2018-10-07T11:57:23.096Z,15.50
2018-10-07T11:59:50.692Z,15.40
2018-10-07T12:02:18.725Z,15.20
2018-10-07T12:04:46.245Z,15.10
2018-10-07T12:07:18.281Z,15.10
2018-10-07T12:09:45.916Z,15.20
2018-10-07T12:12:13.918Z,15.10
2018-10-07T12:14:41.666Z,15.00
2018-10-07T12:17:10.050Z,15.10
2018-10-07T12:19:37.714Z,15.00
2018-10-07T12:22:05.589Z,15.10
2018-10-07T12:24:33.219Z,15.10
2018-10-07T12:27:00.850Z,15.10
2018-10-07T12:29:28.804Z,15.10
2018-10-07T12:31:56.664Z,15.00
2018-10-07T12:34:24.268Z,15.00
2018-10-07T12:36:51.977Z,15.10
2018-10-07T12:39:19.525Z,15.10
2018-10-07T12:41:47.342Z,15.10
2018-10-07T12:44:15.218Z,15.20
2018-10-07T12:46:42.801Z,15.20
2018-10-07T12:49:10.448Z,15.20
2018-10-07T12:51:38.041Z,15.20
2018-10-07T12:54:05.777Z,15.20
2018-10-07T12:56:33.290Z,15.20
2018-10-07T12:59:01.006Z,15.20
2018-10-07T13:01:28.682Z,15.20
2018-10-07T13:03:56.416Z,15.20
2018-10-07T13:06:24.035Z,15.00
2018-10-07T13:08:51.717Z,14.90
2018-10-07T13:11:19.251Z,14.80
2018-10-07T13:13:46.907Z,14.80
2018-10-07T13:16:14.502Z,14.80
2018-10-07T13:18:42.111Z,14.70
2018-10-07T13:21:10.731Z,14.80
2018-10-07T13:23:38.370Z,14.80
2018-10-07T13:26:05.974Z,14.80
2018-10-07T13:28:34.667Z,14.80
2018-10-07T13:31:02.430Z,14.90
2018-10-07T13:33:30.024Z,14.90
2018-10-07T13:35:57.643Z,15.00
2018-10-07T13:38:25.402Z,14.90
2018-10-07T13:40:53.148Z,14.90
2018-10-07T13:43:20.839Z,14.90
2018-10-07T13:45:48.551Z,14.90
2018-10-07T13:48:16.687Z,15.00
2018-10-07T13:50:44.441Z,14.90
2018-10-07T13:53:12.117Z,14.90
2018-10-07T13:55:39.798Z,14.80
2018-10-07T13:58:07.469Z,14.80
2018-10-07T14:00:35.098Z,14.80
2018-10-07T14:03:02.769Z,14.70
2018-10-07T14:05:30.437Z,14.70
2018-10-07T14:07:58.110Z,14.70
2018-10-07T14:10:25.737Z,14.60
2018-10-07T14:12:53.382Z,14.50
2018-10-07T14:15:21.086Z,14.50
2018-10-07T14:17:48.660Z,14.40
2018-10-07T14:20:19.526Z,14.40
2018-10-07T14:22:47.172Z,14.30
2018-10-07T14:25:24.890Z,14.30
2018-10-07T14:27:52.469Z,14.20
2018-10-07T14:30:21.159Z,14.10
2018-10-07T14:32:48.866Z,14.10
2018-10-07T14:35:16.727Z,14.10
2018-10-07T14:37:56.598Z,14.10
2018-10-07T14:40:24.222Z,14.10
2018-10-07T14:42:51.846Z,14.10
2018-10-07T14:45:27.568Z,13.90
2018-10-07T14:47:55.235Z,13.90
2018-10-07T14:50:22.857Z,13.90
2018-10-07T14:52:50.436Z,13.80
2018-10-07T14:55:18.147Z,13.80
2018-10-07T14:57:53.648Z,13.80
2018-10-07T15:00:21.294Z,13.80
2018-10-07T15:02:48.938Z,13.80
2018-10-07T15:05:16.589Z,13.80
2018-10-07T15:07:44.172Z,13.80
2018-10-07T15:10:11.794Z,13.80
2018-10-07T15:12:40.411Z,13.70
2018-10-07T15:15:08.066Z,13.70
2018-10-07T15:17:35.606Z,13.70
2018-10-07T15:20:03.507Z,13.60
2018-10-07T15:22:31.275Z,13.60
2018-10-07T15:25:03.363Z,13.60
2018-10-07T15:27:30.998Z,13.60
2018-10-07T15:29:58.798Z,13.60
2018-10-07T15:32:26.411Z,13.60
2018-10-07T15:34:54.058Z,13.50
2018-10-07T15:37:21.978Z,13.50
2018-10-07T15:39:49.663Z,13.40
2018-10-07T15:42:17.337Z,13.40
2018-10-07T15:44:45.232Z,13.40
2018-10-07T15:47:12.825Z,13.40
2018-10-07T15:49:40.530Z,13.50
2018-10-07T15:52:08.152Z,13.40
2018-10-07T15:54:35.757Z,13.40
2018-10-07T15:57:03.509Z,13.40
2018-10-07T15:59:31.203Z,13.40
2018-10-07T16:01:58.884Z,13.30
2018-10-07T16:04:26.668Z,13.30
2018-10-07T16:07:07.362Z,13.20
2018-10-07T16:09:35.064Z,13.30
2018-10-07T16:12:02.749Z,13.20
2018-10-07T16:14:30.392Z,13.20
2018-10-07T16:16:58.061Z,13.20
2018-10-07T16:19:25.745Z,13.10
2018-10-07T16:21:53.454Z,13.10
2018-10-07T16:24:21.404Z,13.00
2018-10-07T16:26:49.068Z,13.10
2018-10-07T16:29:16.806Z,13.00
2018-10-07T16:31:45.515Z,12.90
2018-10-07T16:34:13.310Z,12.90
2018-10-07T16:36:41.112Z,12.90
2018-10-07T16:39:08.886Z,12.80
2018-10-07T16:41:36.895Z,12.80
2018-10-07T16:44:04.685Z,12.70
2018-10-07T16:46:32.499Z,12.70
2018-10-07T16:49:00.299Z,12.70
2018-10-07T16:51:28.117Z,12.70
2018-10-07T16:53:55.860Z,12.80
2018-10-07T16:56:23.624Z,12.70
2018-10-07T16:58:51.517Z,12.70
2018-10-07T17:01:19.217Z,12.70
2018-10-07T17:03:46.994Z,12.70
2018-10-07T17:06:14.847Z,12.70
2018-10-07T17:08:57.146Z,12.70
2018-10-07T17:11:24.969Z,12.70
2018-10-07T17:13:52.872Z,12.70
2018-10-07T17:16:20.738Z,12.70
2018-10-07T17:18:48.518Z,12.60
2018-10-07T17:21:16.282Z,12.60
2018-10-07T17:23:43.960Z,12.60
2018-10-07T17:26:11.824Z,12.60
2018-10-07T17:28:39.619Z,12.60
2018-10-07T17:31:07.352Z,12.60
2018-10-07T17:33:34.926Z,12.60
2018-10-07T17:36:02.567Z,12.60
2018-10-07T17:38:30.195Z,12.60
2018-10-07T17:40:57.846Z,12.60
2018-10-07T17:43:25.384Z,12.60
2018-10-07T17:45:53.071Z,12.60
2018-10-07T17:48:20.734Z,12.50
2018-10-07T17:50:48.351Z,12.50
2018-10-07T17:53:15.984Z,12.50
2018-10-07T17:55:43.605Z,12.50
2018-10-07T17:58:11.279Z,12.50
2018-10-07T18:00:39.725Z,12.50
2018-10-07T18:03:07.373Z,12.40
2018-10-07T18:05:35.061Z,12.50
2018-10-07T18:08:02.735Z,12.40
2018-10-07T18:10:30.356Z,12.40
2018-10-07T18:12:57.994Z,12.30
2018-10-07T18:15:25.590Z,12.40
2018-10-07T18:17:58.733Z,12.40
2018-10-07T18:20:26.334Z,12.40
2018-10-07T18:22:53.985Z,12.40
2018-10-07T18:25:21.706Z,12.50
2018-10-07T18:27:49.350Z,12.50
2018-10-07T18:30:16.949Z,12.50
2018-10-07T18:32:44.559Z,12.50
2018-10-07T18:35:12.359Z,12.50
2018-10-07T18:37:40.003Z,12.50
2018-10-07T18:40:07.629Z,12.50
2018-10-07T18:42:37.417Z,12.60
2018-10-07T18:45:05.124Z,12.50
2018-10-07T18:47:33.715Z,12.50
2018-10-07T18:50:01.741Z,12.50
2018-10-07T18:52:29.426Z,12.40
2018-10-07T18:54:57.086Z,12.40
2018-10-07T18:57:25.732Z,12.40
2018-10-07T18:59:53.400Z,12.40
2018-10-07T19:02:21.107Z,12.40
2018-10-07T19:04:48.663Z,12.40
2018-10-07T19:07:16.251Z,12.50
2018-10-07T19:09:43.848Z,12.40
2018-10-07T19:12:12.502Z,12.50
2018-10-07T19:14:40.269Z,12.40
2018-10-07T19:17:07.996Z,12.40
2018-10-07T19:19:35.534Z,12.40
2018-10-07T19:22:03.116Z,12.40
2018-10-07T19:24:30.781Z,12.40
2018-10-07T19:26:58.357Z,12.40
2018-10-07T19:29:26.035Z,12.50
2018-10-07T19:31:53.674Z,12.50
2018-10-07T19:34:21.326Z,12.40
2018-10-07T19:36:48.962Z,12.40
2018-10-07T19:39:16.566Z,12.40
2018-10-07T19:41:48.589Z,12.40
2018-10-07T19:44:16.266Z,12.30
2018-10-07T19:46:43.855Z,12.40
2018-10-07T19:49:11.434Z,12.40
2018-10-07T19:51:39.055Z,12.40
2018-10-07T19:54:06.700Z,12.30
2018-10-07T19:56:34.282Z,12.20
2018-10-07T19:59:11.792Z,12.20
2018-10-07T20:01:39.496Z,12.20
2018-10-07T20:04:07.131Z,12.20
2018-10-07T20:06:34.725Z,12.20
2018-10-07T20:09:02.370Z,12.20
2018-10-07T20:11:29.982Z,12.20
2018-10-07T20:13:57.549Z,12.10
2018-10-07T20:16:25.278Z,12.10
2018-10-07T20:18:52.946Z,12.00
2018-10-07T20:21:20.648Z,12.00
2018-10-07T20:23:48.380Z,12.00
2018-10-07T20:26:16.020Z,11.90
2018-10-07T20:28:43.535Z,11.90
2018-10-07T20:31:11.182Z,11.80
2018-10-07T20:33:42.800Z,11.80
2018-10-07T20:36:10.438Z,11.80
2018-10-07T20:38:38.117Z,11.70
2018-10-07T20:41:05.909Z,11.70
2018-10-07T20:43:33.449Z,11.70
2018-10-07T20:46:06.417Z,11.70
2018-10-07T20:48:33.991Z,11.60
2018-10-07T20:51:01.683Z,11.60
2018-10-07T20:53:29.316Z,11.60
2018-10-07T20:55:56.950Z,11.50
2018-10-07T20:58:24.674Z,11.50
2018-10-07T21:00:52.243Z,11.50
2018-10-07T21:03:19.978Z,11.50
2018-10-07T21:05:47.616Z,11.40
2018-10-07T21:08:15.231Z,11.40
2018-10-07T21:10:42.830Z,11.40
2018-10-07T21:13:10.489Z,11.40
2018-10-07T21:15:38.173Z,11.30
2018-10-07T21:18:05.870Z,11.30
2018-10-07T21:20:33.390Z,11.20
2018-10-07T21:23:00.937Z,11.20
2018-10-07T21:28:16.337Z,11.20
2018-10-07T21:30:43.944Z,11.20
2018-10-07T21:33:11.521Z,11.20
2018-10-07T21:35:39.122Z,11.10
2018-10-07T21:38:06.861Z,11.10
2018-10-07T21:40:35.597Z,11.10
2018-10-07T21:43:03.286Z,11.10
2018-10-07T21:45:30.908Z,11.10
2018-10-07T21:47:58.554Z,11.10
2018-10-07T21:50:26.233Z,11.10
2018-10-07T21:52:53.859Z,11.00
2018-10-07T21:55:21.501Z,10.90
2018-10-07T21:57:49.093Z,10.90
2018-10-07T22:00:16.719Z,10.80
2018-10-07T22:02:44.348Z,10.80
2018-10-07T22:05:11.960Z,10.80
2018-10-07T22:07:39.653Z,10.70
2018-10-07T22:10:07.279Z,10.70
2018-10-07T22:12:34.949Z,10.60
2018-10-07T22:15:02.603Z,10.50
2018-10-07T22:17:30.207Z,10.60
2018-10-07T22:19:57.846Z,10.50
2018-10-07T22:22:25.439Z,10.40
2018-10-07T22:24:53.034Z,10.40
2018-10-07T22:27:20.690Z,10.30
2018-10-07T22:29:48.294Z,10.30
2018-10-07T22:32:16.072Z,10.10
2018-10-07T22:34:43.714Z,10.00
2018-10-07T22:37:11.297Z,10.00
2018-10-07T22:39:38.844Z,10.00
2018-10-07T22:42:06.507Z,9.90
2018-10-07T22:44:34.170Z,9.90
2018-10-07T22:47:01.738Z,9.80
2018-10-07T22:49:29.447Z,9.70
2018-10-07T22:51:57.060Z,9.70
2018-10-07T22:54:24.694Z,9.60
2018-10-07T22:56:52.309Z,9.60
2018-10-07T22:59:19.939Z,9.50
2018-10-07T23:01:47.568Z,9.40
2018-10-07T23:04:15.162Z,9.30
2018-10-07T23:06:42.770Z,9.30
2018-10-07T23:09:11.840Z,9.20
2018-10-07T23:11:39.454Z,9.20
2018-10-07T23:14:07.411Z,9.10
2018-10-07T23:16:35.071Z,9.10
2018-10-07T23:19:02.775Z,9.00
2018-10-07T23:21:30.375Z,9.00
2018-10-07T23:24:00.116Z,9.00
2018-10-07T23:26:27.743Z,9.00
2018-10-07T23:28:55.360Z,9.00
2018-10-07T23:31:23.062Z,8.80
2018-10-07T23:33:50.653Z,8.80
2018-10-07T23:36:18.258Z,8.70
2018-10-07T23:38:45.903Z,8.70
2018-10-07T23:41:13.562Z,8.80
2018-10-07T23:43:41.249Z,8.70
2018-10-07T23:46:08.939Z,8.70
2018-10-07T23:48:40.195Z,8.60
2018-10-07T23:51:07.887Z,8.60
2018-10-07T23:53:35.675Z,8.60
2018-10-07T23:56:03.321Z,8.60
2018-10-07T23:58:31.132Z,8.50
